Drummond Island, MI

1:32 AM EST on December 18, 2014 (GMT -0500)
Potagannissing Bay Front | Change Station
CLOSE
Current Station
Personal Weather Station
Location: Drummond Island, MI
Elevation: 587 ft
Nearby Weather Stations

Elev 587 ft 46.06 °N, 83.67 °W | Updated 2 seconds ago

Overcast
Overcast
20.9 °F
Feels Like 14 °F
N
5.0
Wind Variable Wind from NNE
Gusts 14.0 mph

Today
High -- | Low -- °F
--% Chance of Precip.
Yesterday
High -- | Low -- °F
Precip. -- in
8:12 AM 4:50 PM
Waning Crescent, 16% visible
Pressure 30.13 in
Visibility 10.0 miles
Clouds Overcast 5000 ft
Windchill 14 °F
Dew Point 18 °F
Humidity 87%
Rainfall 0.00 in
Snow Depth Not available.
UV 0 out of 12
Pollen .10 out of 12
Air Quality Not available.
Flu Activity Not available.
METAR KDRM 180615Z AUTO 36008KT 10SM OVC050 M06/M08 A3013 RMK AO2 T10571084

More Conditions Fewer Conditions

Pressure 30.13 in
Visibility 10.0 miles
Clouds Overcast 5000 ft
Windchill 14 °F
Dew Point 18 °F
Humidity 87%
Rainfall 0.00 in
Snow Depth Not available.
UV 0 out of 12
Pollen .10 out of 12
Air Quality Not available.
Flu Activity Not available.
METAR KDRM 180615Z AUTO 36008KT 10SM OVC050 M06/M08 A3013 RMK AO2 T10571084

More Conditions Fewer Conditions

Nowcast | as of 1:00 am EST on December 18, 2014

At 2 am...partly cloudy. Temperature 16. North winds 8 mph. At 4 am...partly cloudy. Temperature 15. North winds 7 mph. At 6 am...mostly sunny. Temperature 13. North winds 6 mph.

×

10-Day Weather Forecast

Almanac

Astronomy

Dec. 18, 2014 Rise Set
Actual Time
Civil Twilight
Nautical Twilight
Astronomical Twilight
Moon
Length of Visible Light
Length of Day
Tomorrow will be .
, % of the Moon is Illuminated

Today's Extremes

State Highs State Lows

Community

WunderPhotos

Upload Photos

1,778,896 photos uploaded!

WunderBlogs® & News

Nearby

Air Quality

  Air Quality AQ Index Pollutant
Not available.

Snow Depth

Station Depth Elevation

Earthquake Activity

City Distance Mag. Time & Date
Minimum magnitude displayed is 2.5.

Coastal Water Temperatures

Place Temperature

Nearby Weather Stations